createdAt,value
2022-09-20T00:01:23.217Z,5.80
2022-09-20T00:03:53.364Z,4.97
2022-09-20T00:06:24.371Z,5.25
2022-09-20T00:08:53.171Z,5.47
2022-09-20T00:11:22.958Z,7.63
2022-09-20T00:13:53.224Z,5.80
2022-09-20T00:16:23.232Z,5.07
2022-09-20T00:18:51.677Z,5.47
2022-09-20T00:21:23.392Z,4.72
2022-09-20T00:23:52.657Z,5.00
2022-09-20T00:26:21.269Z,4.97
2022-09-20T00:28:49.592Z,4.60
2022-09-20T00:31:17.938Z,4.88
2022-09-20T00:34:04.039Z,4.60
2022-09-20T00:36:36.072Z,4.35
2022-09-20T00:39:05.279Z,4.60
2022-09-20T00:41:34.149Z,4.40
2022-09-20T00:44:03.953Z,4.15
2022-09-20T00:46:36.631Z,4.78
2022-09-20T00:49:07.889Z,5.20
2022-09-20T00:51:39.849Z,5.05
2022-09-20T00:54:09.042Z,5.20
2022-09-20T00:56:39.163Z,4.63
2022-09-20T00:59:12.511Z,5.00
2022-09-20T01:01:40.760Z,5.13
2022-09-20T01:04:09.285Z,5.00
2022-09-20T01:06:38.763Z,4.75
2022-09-20T01:09:08.097Z,5.30
2022-09-20T01:11:36.622Z,6.07
2022-09-20T01:14:04.969Z,5.68
2022-09-20T01:16:34.261Z,6.10
2022-09-20T01:19:05.349Z,5.40
2022-09-20T01:21:33.820Z,5.90
2022-09-20T01:24:07.482Z,5.93
2022-09-20T01:26:55.883Z,5.75
2022-09-20T01:29:40.313Z,5.68
2022-09-20T01:32:12.773Z,5.60
2022-09-20T01:34:47.307Z,5.70
2022-09-20T01:37:21.246Z,5.18
2022-09-20T01:39:55.726Z,5.13
2022-09-20T01:42:26.877Z,4.95
2022-09-20T01:47:36.667Z,5.60
2022-09-20T01:50:13.326Z,5.40
2022-09-20T01:53:16.201Z,5.65
2022-09-20T01:56:22.794Z,5.63
2022-09-20T01:59:24.072Z,5.60
2022-09-20T02:02:12.868Z,5.70
2022-09-20T02:05:00.852Z,6.13
2022-09-20T02:07:52.475Z,5.20
2022-09-20T02:10:47.259Z,5.32
2022-09-20T02:13:29.943Z,5.32
2022-09-20T02:16:17.612Z,5.32
2022-09-20T02:19:01.435Z,5.55
2022-09-20T02:21:31.825Z,6.20
2022-09-20T02:24:06.119Z,5.50
2022-09-20T02:26:40.416Z,5.43
2022-09-20T02:29:17.586Z,5.70
2022-09-20T02:32:04.236Z,6.18
2022-09-20T02:34:56.903Z,5.35
2022-09-20T02:37:55.540Z,6.18
2022-09-20T02:40:37.940Z,5.45
2022-09-20T02:43:12.040Z,6.47
2022-09-20T02:45:45.572Z,5.47
2022-09-20T02:48:16.502Z,5.70
2022-09-20T02:50:52.515Z,5.90
2022-09-20T02:53:32.029Z,6.07
2022-09-20T02:56:04.780Z,6.15
2022-09-20T02:58:41.447Z,6.18
2022-09-20T03:01:17.091Z,6.55
2022-09-20T03:03:52.012Z,6.53
2022-09-20T03:06:28.788Z,6.30
2022-09-20T03:09:02.394Z,6.63
2022-09-20T03:11:34.419Z,5.95
2022-09-20T03:14:09.960Z,7.15
2022-09-20T03:16:51.410Z,6.13
2022-09-20T03:19:33.588Z,6.75
2022-09-20T03:24:43.183Z,7.63
2022-09-20T03:27:17.840Z,8.00
2022-09-20T03:29:59.583Z,7.38
2022-09-20T03:32:39.759Z,7.88
2022-09-20T03:35:22.511Z,7.07
2022-09-20T03:38:05.142Z,7.25
2022-09-20T03:40:57.568Z,7.55
2022-09-20T03:43:36.358Z,7.68
2022-09-20T03:46:14.404Z,8.75
2022-09-20T03:49:10.350Z,7.32
2022-09-20T03:51:45.713Z,7.78
2022-09-20T03:54:43.137Z,7.45
2022-09-20T03:57:28.353Z,7.68
2022-09-20T04:00:07.802Z,7.20
2022-09-20T04:02:52.501Z,7.35
2022-09-20T04:05:25.182Z,6.90
2022-09-20T04:08:02.206Z,6.47
2022-09-20T04:10:47.070Z,6.88
2022-09-20T04:13:25.444Z,6.43
2022-09-20T04:16:03.391Z,6.30
2022-09-20T04:18:35.331Z,5.85
2022-09-20T04:21:06.489Z,6.10
2022-09-20T04:23:41.698Z,5.63
2022-09-20T04:26:11.812Z,5.82
2022-09-20T04:28:44.646Z,6.32
2022-09-20T04:31:20.939Z,6.03
2022-09-20T04:33:51.617Z,5.68
2022-09-20T04:36:37.223Z,5.75
2022-09-20T04:39:15.957Z,5.10
2022-09-20T04:42:12.633Z,5.07
2022-09-20T04:45:11.205Z,5.60
2022-09-20T04:48:17.971Z,6.10
2022-09-20T04:51:10.081Z,5.35
2022-09-20T04:54:13.971Z,6.10
2022-09-20T04:56:54.044Z,6.90
2022-09-20T04:59:29.187Z,6.50
2022-09-20T05:02:48.789Z,6.38
2022-09-20T05:05:43.636Z,4.85
2022-09-20T05:08:41.347Z,5.97
2022-09-20T05:11:33.650Z,4.68
2022-09-20T05:14:23.117Z,4.78
2022-09-20T05:17:06.346Z,4.82
2022-09-20T05:19:41.490Z,6.28
2022-09-20T05:22:22.593Z,7.38
2022-09-20T05:25:27.370Z,6.90
2022-09-20T05:28:00.175Z,5.93
2022-09-20T05:30:38.150Z,5.00
2022-09-20T05:33:16.199Z,4.45
2022-09-20T05:35:50.286Z,4.35
2022-09-20T05:38:24.115Z,5.13
2022-09-20T05:41:06.862Z,4.97
2022-09-20T05:43:36.733Z,6.10
2022-09-20T05:46:15.602Z,6.97
2022-09-20T05:48:54.572Z,6.15
2022-09-20T05:51:37.036Z,6.05
2022-09-20T05:54:32.517Z,5.43
2022-09-20T05:57:12.336Z,4.82
2022-09-20T05:59:52.938Z,4.72
2022-09-20T06:02:32.174Z,4.90
2022-09-20T06:05:04.784Z,6.05
2022-09-20T06:07:46.236Z,5.35
2022-09-20T06:12:59.492Z,7.63
2022-09-20T06:15:30.682Z,6.65
2022-09-20T06:18:15.172Z,6.43
2022-09-20T06:20:49.879Z,6.35
2022-09-20T06:23:18.938Z,6.00
2022-09-20T06:25:56.272Z,7.03
2022-09-20T06:28:26.467Z,7.05
2022-09-20T06:30:57.332Z,7.30
2022-09-20T06:33:28.468Z,8.27
2022-09-20T06:36:22.411Z,8.20
2022-09-20T06:39:15.107Z,8.27
2022-09-20T06:41:44.376Z,7.43
2022-09-20T06:44:12.489Z,8.05
2022-09-20T06:46:41.770Z,7.60
2022-09-20T06:49:11.685Z,7.72
2022-09-20T06:51:41.535Z,9.48
2022-09-20T06:54:17.427Z,8.48
2022-09-20T06:56:46.939Z,8.88
2022-09-20T06:59:15.470Z,7.97
2022-09-20T07:01:44.812Z,9.25
2022-09-20T07:04:14.699Z,8.75
2022-09-20T07:06:42.942Z,9.02
2022-09-20T07:09:12.598Z,9.98
2022-09-20T07:11:40.876Z,9.15
2022-09-20T07:14:09.549Z,9.40
2022-09-20T07:16:38.094Z,8.57
2022-09-20T07:19:06.707Z,9.45
2022-09-20T07:21:36.213Z,10.27
2022-09-20T07:24:04.465Z,9.63
2022-09-20T07:26:33.668Z,9.15
2022-09-20T07:29:02.452Z,10.10
2022-09-20T07:31:31.278Z,11.93
2022-09-20T07:33:59.622Z,12.18
2022-09-20T07:36:29.380Z,13.15
2022-09-20T07:38:59.022Z,12.85
2022-09-20T07:41:32.592Z,11.13
2022-09-20T07:44:20.689Z,10.38
2022-09-20T07:46:49.531Z,10.98
2022-09-20T07:49:17.716Z,9.73
2022-09-20T07:51:46.068Z,13.23
2022-09-20T07:54:16.244Z,10.93
2022-09-20T07:56:44.894Z,11.38
2022-09-20T07:59:13.730Z,9.70
2022-09-20T08:01:42.814Z,8.90
2022-09-20T08:04:11.712Z,7.97
2022-09-20T08:06:40.941Z,9.00
2022-09-20T08:09:11.296Z,9.20
2022-09-20T08:11:41.806Z,8.80
2022-09-20T08:14:14.457Z,7.93
2022-09-20T08:16:44.877Z,8.25
2022-09-20T08:19:16.757Z,7.10
2022-09-20T08:21:45.196Z,7.38
2022-09-20T08:24:13.276Z,7.30
2022-09-20T08:26:43.714Z,7.05
2022-09-20T08:29:12.278Z,7.75
2022-09-20T08:31:42.702Z,6.50
2022-09-20T08:34:13.067Z,5.77
2022-09-20T08:36:42.607Z,5.90
2022-09-20T08:42:08.974Z,5.82
2022-09-20T08:44:45.831Z,6.78
2022-09-20T08:47:19.499Z,6.32
2022-09-20T08:49:47.707Z,5.82
2022-09-20T08:52:18.158Z,6.60
2022-09-20T08:54:47.023Z,6.63
2022-09-20T08:57:18.578Z,6.20
2022-09-20T08:59:46.860Z,5.88
2022-09-20T09:02:18.245Z,6.15
2022-09-20T09:07:16.456Z,8.60
2022-09-20T09:09:46.754Z,8.05
2022-09-20T09:12:23.249Z,9.93
2022-09-20T09:14:55.222Z,9.20
2022-09-20T09:17:28.460Z,6.63
2022-09-20T09:19:58.301Z,8.82
2022-09-20T09:22:32.249Z,8.18
2022-09-20T09:25:26.905Z,7.47
2022-09-20T09:27:58.505Z,5.70
2022-09-20T09:30:29.396Z,4.65
2022-09-20T09:33:28.027Z,4.00
2022-09-20T09:35:59.456Z,4.32
2022-09-20T09:38:29.994Z,4.00
2022-09-20T09:40:59.388Z,3.70
2022-09-20T09:43:30.412Z,3.55
2022-09-20T09:46:18.469Z,2.55
2022-09-20T09:48:50.066Z,2.97
2022-09-20T09:51:20.227Z,3.15
2022-09-20T09:53:49.479Z,2.80
2022-09-20T09:56:28.369Z,3.00
2022-09-20T09:59:10.724Z,2.70
2022-09-20T10:01:42.848Z,2.30
2022-09-20T10:04:15.395Z,2.30
2022-09-20T10:06:52.262Z,2.20
2022-09-20T10:09:30.493Z,3.63
2022-09-20T10:12:11.867Z,2.45
2022-09-20T10:17:35.212Z,1.88
2022-09-20T10:20:15.397Z,1.30
2022-09-20T10:23:21.434Z,1.52
2022-09-20T10:25:43.306Z,1.30
2022-09-20T10:28:25.744Z,1.40
2022-09-20T10:31:05.582Z,2.03
2022-09-20T10:33:37.854Z,2.65
2022-09-20T10:36:14.116Z,2.50
2022-09-20T10:38:47.158Z,1.85
2022-09-20T10:41:42.070Z,1.75
2022-09-20T10:44:16.697Z,1.10
2022-09-20T10:46:54.973Z,1.10
2022-09-20T10:49:29.738Z,1.45
2022-09-20T10:52:22.176Z,1.17
2022-09-20T10:55:03.797Z,0.70
2022-09-20T10:57:50.015Z,0.70
2022-09-20T11:00:22.363Z,0.60
2022-09-20T11:03:13.361Z,0.60
2022-09-20T11:05:46.567Z,0.47
2022-09-20T11:08:19.036Z,0.80
2022-09-20T11:10:50.137Z,0.90
2022-09-20T11:15:54.595Z,1.10
2022-09-20T11:18:28.331Z,1.10
2022-09-20T11:21:01.690Z,0.70
2022-09-20T11:23:35.166Z,1.10
2022-09-20T11:26:09.650Z,0.80
2022-09-20T11:28:41.786Z,1.10
2022-09-20T11:31:13.004Z,1.48
2022-09-20T11:33:46.195Z,1.40
2022-09-20T11:36:17.672Z,1.75
2022-09-20T11:38:53.252Z,1.40
2022-09-20T11:41:26.064Z,2.10
2022-09-20T11:43:57.511Z,1.77
2022-09-20T11:46:28.317Z,2.55
2022-09-20T11:49:02.537Z,4.30
2022-09-20T11:51:54.684Z,3.08
2022-09-20T11:55:04.644Z,3.28
2022-09-20T11:57:33.453Z,3.00
2022-09-20T12:00:04.291Z,3.35
2022-09-20T12:05:07.102Z,2.20
2022-09-20T12:07:38.133Z,2.40
2022-09-20T12:10:09.592Z,2.00
2022-09-20T12:12:41.685Z,1.73
2022-09-20T12:15:25.024Z,1.27
2022-09-20T12:18:25.874Z,1.23
2022-09-20T12:21:16.131Z,1.60
2022-09-20T12:24:23.570Z,1.30
2022-09-20T12:27:00.206Z,1.27
2022-09-20T12:30:09.481Z,0.80
2022-09-20T12:32:47.292Z,0.90
2022-09-20T12:36:00.715Z,1.67
2022-09-20T12:38:40.077Z,3.20
2022-09-20T12:41:16.884Z,1.52
2022-09-20T12:44:01.246Z,1.77
2022-09-20T12:46:34.134Z,1.20
2022-09-20T12:49:41.618Z,1.40
2022-09-20T12:52:49.890Z,1.77
2022-09-20T12:55:32.987Z,1.70
2022-09-20T12:58:03.691Z,1.30
2022-09-20T13:00:38.469Z,1.58
2022-09-20T13:03:23.259Z,2.05
2022-09-20T13:05:53.140Z,0.90
2022-09-20T13:08:24.446Z,0.80
2022-09-20T13:11:02.298Z,0.65
2022-09-20T13:13:33.712Z,0.88
2022-09-20T13:16:05.765Z,0.90
2022-09-20T13:18:35.845Z,0.90
2022-09-20T13:21:07.139Z,1.10
2022-09-20T13:23:46.628Z,1.23
2022-09-20T13:26:17.083Z,1.30
2022-09-20T13:28:49.239Z,1.45
2022-09-20T13:31:24.457Z,1.58
2022-09-20T13:33:52.979Z,1.48
2022-09-20T13:36:27.243Z,2.30
2022-09-20T13:38:57.971Z,2.78
2022-09-20T13:41:32.618Z,2.42
2022-09-20T13:44:01.495Z,1.48
2022-09-20T13:46:31.512Z,1.30
2022-09-20T13:49:10.579Z,1.65
2022-09-20T13:51:38.901Z,1.65
2022-09-20T13:54:21.956Z,2.45
2022-09-20T13:56:52.186Z,3.50
2022-09-20T13:59:20.801Z,3.00
2022-09-20T14:01:53.179Z,2.22
2022-09-20T14:04:23.589Z,2.40
2022-09-20T14:06:54.740Z,2.53
2022-09-20T14:11:55.107Z,2.50
2022-09-20T14:14:24.600Z,2.50
2022-09-20T14:16:55.060Z,2.85
2022-09-20T14:19:28.758Z,2.17
2022-09-20T14:21:58.177Z,2.55
2022-09-20T14:24:32.014Z,2.70
2022-09-20T14:27:05.707Z,2.78
2022-09-20T14:29:41.229Z,2.65
2022-09-20T14:32:27.500Z,1.90
2022-09-20T14:35:02.313Z,1.20
2022-09-20T14:37:33.172Z,1.98
2022-09-20T14:40:03.698Z,1.95
2022-09-20T14:42:35.992Z,1.30
2022-09-20T14:45:05.656Z,1.80
2022-09-20T14:47:38.830Z,1.73
2022-09-20T14:50:25.130Z,2.03
2022-09-20T14:53:08.369Z,2.13
2022-09-20T14:55:37.997Z,2.78
2022-09-20T14:58:11.920Z,3.00
2022-09-20T15:00:51.233Z,3.10
2022-09-20T15:03:26.448Z,3.05
2022-09-20T15:05:54.774Z,3.50
2022-09-20T15:08:23.482Z,4.40
2022-09-20T15:10:52.062Z,2.17
2022-09-20T15:13:21.792Z,1.80
2022-09-20T15:15:52.765Z,1.60
2022-09-20T15:18:22.885Z,1.88
2022-09-20T15:20:51.463Z,1.63
2022-09-20T15:23:20.076Z,1.25
2022-09-20T15:25:51.296Z,1.20
2022-09-20T15:30:51.473Z,1.20
2022-09-20T15:33:20.557Z,1.50
2022-09-20T15:35:49.916Z,2.08
2022-09-20T15:38:18.919Z,2.10
2022-09-20T15:40:48.586Z,2.00
2022-09-20T15:43:19.685Z,1.23
2022-09-20T15:45:51.607Z,2.88
2022-09-20T15:48:21.625Z,5.13
2022-09-20T15:51:03.581Z,3.92
2022-09-20T15:53:35.841Z,2.30
2022-09-20T15:56:06.857Z,3.97
2022-09-20T15:58:36.746Z,3.20
2022-09-20T16:01:08.213Z,3.00
2022-09-20T16:03:37.451Z,3.10
2022-09-20T16:06:08.267Z,2.33
2022-09-20T16:08:38.107Z,1.38
2022-09-20T16:11:07.296Z,1.15
2022-09-20T16:13:36.764Z,1.13
2022-09-20T16:16:08.696Z,0.77
2022-09-20T16:18:55.771Z,0.80
2022-09-20T16:21:24.551Z,1.00
2022-09-20T16:23:54.305Z,1.42
2022-09-20T16:26:24.186Z,1.50
2022-09-20T16:28:53.119Z,1.40
2022-09-20T16:31:34.820Z,2.28
2022-09-20T16:34:04.175Z,2.75
2022-09-20T16:36:32.472Z,5.55
2022-09-20T16:39:01.737Z,14.48
2022-09-20T16:41:31.117Z,28.45
2022-09-20T16:43:59.723Z,25.27
2022-09-20T16:46:28.348Z,36.10
2022-09-20T16:49:00.993Z,20.38
2022-09-20T16:51:33.556Z,12.20
2022-09-20T16:54:05.822Z,11.65
2022-09-20T16:56:35.920Z,11.05
2022-09-20T16:59:06.368Z,13.45
2022-09-20T17:01:37.139Z,9.80
2022-09-20T17:04:08.414Z,8.27
2022-09-20T17:06:38.927Z,7.90
2022-09-20T17:09:08.976Z,9.18
2022-09-20T17:11:38.944Z,10.52
2022-09-20T17:14:08.649Z,10.95
2022-09-20T17:16:39.599Z,13.32
2022-09-20T17:19:11.687Z,14.80
2022-09-20T17:21:43.547Z,10.50
2022-09-20T17:24:12.254Z,13.65
2022-09-20T17:26:41.826Z,16.73
2022-09-20T17:29:13.792Z,14.23
2022-09-20T17:31:44.570Z,10.88
2022-09-20T17:34:15.734Z,9.57
2022-09-20T17:36:45.561Z,10.95
2022-09-20T17:39:15.539Z,12.10
2022-09-20T17:41:44.961Z,11.05
2022-09-20T17:44:13.574Z,9.85
2022-09-20T17:46:42.864Z,9.85
2022-09-20T17:49:12.337Z,10.27
2022-09-20T17:51:43.674Z,8.35
2022-09-20T17:54:14.095Z,8.57
2022-09-20T17:56:45.859Z,9.40
2022-09-20T17:59:15.806Z,9.02
2022-09-20T18:01:44.948Z,9.45
2022-09-20T18:04:13.711Z,9.88
2022-09-20T18:06:47.080Z,12.43
2022-09-20T18:09:16.998Z,10.32
2022-09-20T18:11:48.901Z,10.55
2022-09-20T18:14:19.086Z,10.57
2022-09-20T18:16:47.396Z,10.40
2022-09-20T18:19:16.396Z,10.65
2022-09-20T18:21:46.117Z,11.77
2022-09-20T18:24:14.344Z,11.27
2022-09-20T18:26:42.871Z,10.80
2022-09-20T18:29:12.941Z,12.63
2022-09-20T18:31:43.556Z,12.32
2022-09-20T18:34:18.576Z,12.50
2022-09-20T18:36:53.354Z,12.77
2022-09-20T18:39:22.839Z,21.45
2022-09-20T18:41:53.560Z,25.77
2022-09-20T18:44:22.826Z,24.60
2022-09-20T18:46:54.281Z,21.65
2022-09-20T18:51:52.990Z,16.10
2022-09-20T18:54:21.449Z,12.57
2022-09-20T18:56:51.426Z,11.07
2022-09-20T18:59:21.233Z,9.32
2022-09-20T19:02:09.661Z,9.38
2022-09-20T19:04:52.449Z,9.60
2022-09-20T19:07:28.024Z,12.57
2022-09-20T19:09:59.513Z,11.80
2022-09-20T19:12:33.020Z,10.13
2022-09-20T19:15:23.943Z,8.75
2022-09-20T19:18:02.122Z,20.83
2022-09-20T19:20:34.124Z,16.90
2022-09-20T19:23:12.217Z,11.77
2022-09-20T19:25:44.194Z,10.48
2022-09-20T19:28:13.773Z,9.48
2022-09-20T19:30:48.252Z,8.70
2022-09-20T19:33:18.418Z,11.30
2022-09-20T19:35:50.761Z,12.32
2022-09-20T19:38:31.493Z,8.90
2022-09-20T19:41:04.912Z,10.70
2022-09-20T19:43:54.150Z,12.70
2022-09-20T19:46:36.241Z,19.42
2022-09-20T19:49:10.039Z,15.60
2022-09-20T19:51:39.641Z,13.07
2022-09-20T19:54:10.624Z,8.57
2022-09-20T19:56:48.510Z,12.52
2022-09-20T19:59:17.822Z,8.90
2022-09-20T20:01:46.549Z,8.25
2022-09-20T20:04:15.104Z,8.68
2022-09-20T20:06:48.549Z,8.05
2022-09-20T20:09:25.366Z,8.07
2022-09-20T20:12:00.356Z,14.52
2022-09-20T20:14:34.217Z,9.43
2022-09-20T20:17:12.839Z,8.27
2022-09-20T20:19:51.386Z,8.75
2022-09-20T20:22:28.538Z,8.73
2022-09-20T20:24:58.634Z,7.72
2022-09-20T20:27:28.668Z,6.95
2022-09-20T20:29:56.937Z,7.30
2022-09-20T20:32:25.940Z,9.20
2022-09-20T20:34:54.250Z,26.35
2022-09-20T20:37:24.463Z,13.65
2022-09-20T20:39:53.078Z,11.85
2022-09-20T20:42:22.816Z,19.42
2022-09-20T20:44:50.851Z,12.13
2022-09-20T20:47:18.950Z,8.77
2022-09-20T20:49:51.997Z,8.35
2022-09-20T20:52:20.671Z,4.15
2022-09-20T20:54:48.860Z,2.55
2022-09-20T20:57:19.118Z,2.15
2022-09-20T20:59:48.691Z,2.20
2022-09-20T21:02:17.458Z,3.47
2022-09-20T21:04:46.246Z,5.03
2022-09-20T21:07:14.381Z,5.40
2022-09-20T21:09:42.766Z,12.10
2022-09-20T21:12:10.964Z,13.88
2022-09-20T21:14:39.282Z,5.30
2022-09-20T21:17:09.190Z,4.57
2022-09-20T21:19:37.269Z,5.55
2022-09-20T21:22:05.568Z,5.07
2022-09-20T21:24:33.819Z,5.15
2022-09-20T21:27:02.243Z,5.43
2022-09-20T21:29:30.356Z,5.00
2022-09-20T21:31:58.575Z,5.03
2022-09-20T21:34:27.980Z,5.20
2022-09-20T21:36:56.040Z,4.97
2022-09-20T21:39:24.322Z,5.63
2022-09-20T21:41:52.564Z,5.10
2022-09-20T21:44:20.639Z,5.40
2022-09-20T21:46:50.163Z,6.00
2022-09-20T21:49:18.213Z,6.35
2022-09-20T21:51:47.650Z,6.32
2022-09-20T21:54:16.012Z,7.35
2022-09-20T21:56:44.247Z,6.47
2022-09-20T21:59:12.227Z,7.40
2022-09-20T22:01:41.226Z,6.55
2022-09-20T22:04:10.733Z,6.28
2022-09-20T22:06:39.896Z,7.53
2022-09-20T22:09:10.807Z,7.53
2022-09-20T22:11:40.724Z,7.40
2022-09-20T22:14:09.555Z,8.30
2022-09-20T22:16:39.060Z,8.98
2022-09-20T22:19:10.169Z,8.35
2022-09-20T22:24:10.612Z,8.88
2022-09-20T22:29:09.496Z,8.25
2022-09-20T22:31:41.544Z,9.05
2022-09-20T22:36:39.975Z,8.70
2022-09-20T22:39:11.099Z,8.52
2022-09-20T22:44:09.887Z,8.48
2022-09-20T22:46:39.197Z,8.70
2022-09-20T22:49:08.361Z,9.50
2022-09-20T22:51:37.384Z,8.95
2022-09-20T22:54:07.074Z,7.97
2022-09-20T22:56:37.847Z,8.30
2022-09-20T22:59:08.051Z,8.67
2022-09-20T23:01:37.516Z,8.80
2022-09-20T23:04:07.881Z,9.05
2022-09-20T23:06:38.227Z,9.33
2022-09-20T23:09:08.039Z,9.10
2022-09-20T23:11:37.976Z,10.07
2022-09-20T23:14:07.559Z,9.85
2022-09-20T23:16:37.278Z,10.02
2022-09-20T23:19:07.304Z,8.75
2022-09-20T23:21:37.275Z,9.05
2022-09-20T23:24:07.634Z,8.98
2022-09-20T23:26:38.950Z,7.70
2022-09-20T23:29:08.990Z,7.53
2022-09-20T23:31:38.380Z,8.15
2022-09-20T23:34:08.207Z,8.20
2022-09-20T23:36:39.159Z,8.75
2022-09-20T23:39:08.448Z,8.10
2022-09-20T23:41:38.597Z,7.38
2022-09-20T23:44:09.851Z,7.80
2022-09-20T23:46:38.426Z,7.63
2022-09-20T23:49:09.380Z,8.25
2022-09-20T23:51:38.267Z,8.23
2022-09-20T23:54:06.961Z,7.90
2022-09-20T23:56:35.929Z,7.53
2022-09-20T23:59:05.994Z,8.07
